sensor_id;sensor_type;location;lat;lon;timestamp;P1;durP1;ratioP1;P2;durP2;ratioP2
11111;SDS011;5609;49.466;8.468;2023-05-10T00:01:07;2.53;;;1.57;;
11111;SDS011;5609;49.466;8.468;2023-05-10T00:03:36;2.83;;;1.60;;
11111;SDS011;5609;49.466;8.468;2023-05-10T00:06:03;2.07;;;1.60;;
11111;SDS011;5609;49.466;8.468;2023-05-10T00:08:30;2.70;;;1.70;;
11111;SDS011;5609;49.466;8.468;2023-05-10T00:10:57;3.00;;;1.80;;
11111;SDS011;5609;49.466;8.468;2023-05-10T00:13:25;2.43;;;1.60;;
11111;SDS011;5609;49.466;8.468;2023-05-10T00:15:52;2.67;;;1.83;;
11111;SDS011;5609;49.466;8.468;2023-05-10T00:18:19;2.50;;;1.70;;
11111;SDS011;5609;49.466;8.468;2023-05-10T00:20:47;2.10;;;1.70;;
11111;SDS011;5609;49.466;8.468;2023-05-10T00:23:14;1.60;;;1.50;;
11111;SDS011;5609;49.466;8.468;2023-05-10T00:25:41;1.80;;;1.70;;
11111;SDS011;5609;49.466;8.468;2023-05-10T00:28:08;2.27;;;1.70;;
11111;SDS011;5609;49.466;8.468;2023-05-10T00:30:35;1.90;;;1.70;;
11111;SDS011;5609;49.466;8.468;2023-05-10T00:33:02;2.50;;;1.67;;
11111;SDS011;5609;49.466;8.468;2023-05-10T00:35:30;1.93;;;1.70;;
11111;SDS011;5609;49.466;8.468;2023-05-10T00:37:58;2.00;;;1.80;;
11111;SDS011;5609;49.466;8.468;2023-05-10T00:40:25;2.60;;;1.80;;
11111;SDS011;5609;49.466;8.468;2023-05-10T00:42:53;2.57;;;2.10;;
11111;SDS011;5609;49.466;8.468;2023-05-10T00:45:20;2.67;;;2.47;;
11111;SDS011;5609;49.466;8.468;2023-05-10T00:47:47;2.93;;;2.70;;
11111;SDS011;5609;49.466;8.468;2023-05-10T00:50:14;2.93;;;2.37;;
11111;SDS011;5609;49.466;8.468;2023-05-10T00:52:41;3.30;;;2.20;;
11111;SDS011;5609;49.466;8.468;2023-05-10T00:55:10;2.93;;;1.80;;
11111;SDS011;5609;49.466;8.468;2023-05-10T00:57:38;1.70;;;1.60;;
11111;SDS011;5609;49.466;8.468;2023-05-10T01:00:05;2.13;;;1.80;;
11111;SDS011;5609;49.466;8.468;2023-05-10T01:02:33;2.57;;;1.97;;
11111;SDS011;5609;49.466;8.468;2023-05-10T01:05:00;2.60;;;2.00;;
11111;SDS011;5609;49.466;8.468;2023-05-10T01:07:28;2.57;;;1.70;;
11111;SDS011;5609;49.466;8.468;2023-05-10T01:09:55;2.13;;;1.80;;
11111;SDS011;5609;49.466;8.468;2023-05-10T01:12:24;3.37;;;2.00;;
11111;SDS011;5609;49.466;8.468;2023-05-10T01:14:51;3.00;;;1.70;;
11111;SDS011;5609;49.466;8.468;2023-05-10T01:17:18;2.00;;;1.90;;
11111;SDS011;5609;49.466;8.468;2023-05-10T01:19:46;2.03;;;1.83;;
11111;SDS011;5609;49.466;8.468;2023-05-10T01:22:17;4.13;;;1.80;;
11111;SDS011;5609;49.466;8.468;2023-05-10T01:25:02;2.13;;;1.70;;
11111;SDS011;5609;49.466;8.468;2023-05-10T01:27:51;3.77;;;1.87;;
11111;SDS011;5609;49.466;8.468;2023-05-10T01:33:10;1.93;;;1.53;;
11111;SDS011;5609;49.466;8.468;2023-05-10T01:35:40;1.60;;;1.50;;
11111;SDS011;5609;49.466;8.468;2023-05-10T01:38:11;1.90;;;1.57;;
11111;SDS011;5609;49.466;8.468;2023-05-10T01:40:45;1.60;;;1.50;;
11111;SDS011;5609;49.466;8.468;2023-05-10T01:43:15;2.53;;;1.50;;
11111;SDS011;5609;49.466;8.468;2023-05-10T01:45:45;3.87;;;1.40;;
11111;SDS011;5609;49.466;8.468;2023-05-10T01:48:15;1.53;;;1.20;;
11111;SDS011;5609;49.466;8.468;2023-05-10T01:50:44;1.40;;;1.30;;
11111;SDS011;5609;49.466;8.468;2023-05-10T01:53:12;1.47;;;1.30;;
11111;SDS011;5609;49.466;8.468;2023-05-10T01:55:41;2.40;;;1.43;;
11111;SDS011;5609;49.466;8.468;2023-05-10T01:58:10;1.83;;;1.40;;
11111;SDS011;5609;49.466;8.468;2023-05-10T02:00:40;3.37;;;1.40;;
11111;SDS011;5609;49.466;8.468;2023-05-10T02:03:09;1.73;;;1.57;;
11111;SDS011;5609;49.466;8.468;2023-05-10T02:05:38;1.70;;;1.60;;
11111;SDS011;5609;49.466;8.468;2023-05-10T02:08:06;3.93;;;1.57;;
11111;SDS011;5609;49.466;8.468;2023-05-10T02:10:34;1.50;;;1.40;;
11111;SDS011;5609;49.466;8.468;2023-05-10T02:13:02;1.87;;;1.40;;
11111;SDS011;5609;49.466;8.468;2023-05-10T02:15:29;1.87;;;1.50;;
11111;SDS011;5609;49.466;8.468;2023-05-10T02:17:57;3.10;;;1.67;;
11111;SDS011;5609;49.466;8.468;2023-05-10T02:20:25;1.60;;;1.50;;
11111;SDS011;5609;49.466;8.468;2023-05-10T02:22:54;3.23;;;1.60;;
11111;SDS011;5609;49.466;8.468;2023-05-10T02:25:22;1.50;;;1.40;;
11111;SDS011;5609;49.466;8.468;2023-05-10T02:27:49;1.63;;;1.53;;
11111;SDS011;5609;49.466;8.468;2023-05-10T02:30:18;1.97;;;1.70;;
11111;SDS011;5609;49.466;8.468;2023-05-10T02:32:45;1.87;;;1.50;;
11111;SDS011;5609;49.466;8.468;2023-05-10T02:35:13;1.67;;;1.57;;
11111;SDS011;5609;49.466;8.468;2023-05-10T02:37:41;1.70;;;1.60;;
11111;SDS011;5609;49.466;8.468;2023-05-10T02:40:10;1.80;;;1.70;;
11111;SDS011;5609;49.466;8.468;2023-05-10T02:42:37;1.70;;;1.60;;
11111;SDS011;5609;49.466;8.468;2023-05-10T02:45:07;1.90;;;1.60;;
11111;SDS011;5609;49.466;8.468;2023-05-10T02:47:34;2.23;;;1.80;;
11111;SDS011;5609;49.466;8.468;2023-05-10T02:50:02;2.00;;;1.80;;
11111;SDS011;5609;49.466;8.468;2023-05-10T02:52:30;2.37;;;1.63;;
11111;SDS011;5609;49.466;8.468;2023-05-10T02:55:03;1.73;;;1.63;;
11111;SDS011;5609;49.466;8.468;2023-05-10T02:57:33;2.93;;;1.80;;
11111;SDS011;5609;49.466;8.468;2023-05-10T03:00:01;2.90;;;2.00;;
11111;SDS011;5609;49.466;8.468;2023-05-10T03:02:28;2.23;;;1.70;;
11111;SDS011;5609;49.466;8.468;2023-05-10T03:04:55;4.73;;;1.97;;
11111;SDS011;5609;49.466;8.468;2023-05-10T03:07:22;2.30;;;2.10;;
11111;SDS011;5609;49.466;8.468;2023-05-10T03:09:50;2.70;;;2.40;;
11111;SDS011;5609;49.466;8.468;2023-05-10T03:12:19;2.63;;;2.20;;
11111;SDS011;5609;49.466;8.468;2023-05-10T03:15:07;3.13;;;2.00;;
11111;SDS011;5609;49.466;8.468;2023-05-10T03:17:39;2.40;;;2.20;;
11111;SDS011;5609;49.466;8.468;2023-05-10T03:20:08;2.57;;;2.33;;
11111;SDS011;5609;49.466;8.468;2023-05-10T03:22:37;2.73;;;2.53;;
11111;SDS011;5609;49.466;8.468;2023-05-10T03:25:05;3.07;;;2.77;;
11111;SDS011;5609;49.466;8.468;2023-05-10T03:27:33;3.37;;;2.40;;
11111;SDS011;5609;49.466;8.468;2023-05-10T03:30:02;2.80;;;2.50;;
11111;SDS011;5609;49.466;8.468;2023-05-10T03:32:30;2.97;;;2.77;;
11111;SDS011;5609;49.466;8.468;2023-05-10T03:34:59;3.00;;;2.70;;
11111;SDS011;5609;49.466;8.468;2023-05-10T03:37:27;4.30;;;2.73;;
11111;SDS011;5609;49.466;8.468;2023-05-10T03:39:54;3.37;;;2.90;;
11111;SDS011;5609;49.466;8.468;2023-05-10T03:42:21;3.60;;;3.10;;
11111;SDS011;5609;49.466;8.468;2023-05-10T03:44:48;4.00;;;3.30;;
11111;SDS011;5609;49.466;8.468;2023-05-10T03:47:16;4.37;;;3.10;;
11111;SDS011;5609;49.466;8.468;2023-05-10T03:49:43;3.57;;;3.27;;
11111;SDS011;5609;49.466;8.468;2023-05-10T03:52:10;4.60;;;3.53;;
11111;SDS011;5609;49.466;8.468;2023-05-10T03:54:37;3.57;;;3.20;;
11111;SDS011;5609;49.466;8.468;2023-05-10T03:57:05;3.70;;;3.40;;
11111;SDS011;5609;49.466;8.468;2023-05-10T03:59:32;5.00;;;3.30;;
11111;SDS011;5609;49.466;8.468;2023-05-10T04:01:59;5.63;;;3.50;;
11111;SDS011;5609;49.466;8.468;2023-05-10T04:04:27;3.70;;;3.40;;
11111;SDS011;5609;49.466;8.468;2023-05-10T04:06:54;3.07;;;2.87;;
11111;SDS011;5609;49.466;8.468;2023-05-10T04:09:21;6.13;;;3.90;;
11111;SDS011;5609;49.466;8.468;2023-05-10T04:11:48;3.80;;;3.30;;
11111;SDS011;5609;49.466;8.468;2023-05-10T04:14:16;4.03;;;3.50;;
11111;SDS011;5609;49.466;8.468;2023-05-10T04:16:43;2.97;;;2.73;;
11111;SDS011;5609;49.466;8.468;2023-05-10T04:19:10;3.47;;;3.00;;
11111;SDS011;5609;49.466;8.468;2023-05-10T04:21:38;2.90;;;2.70;;
11111;SDS011;5609;49.466;8.468;2023-05-10T04:24:05;4.83;;;3.30;;
11111;SDS011;5609;49.466;8.468;2023-05-10T04:26:32;4.77;;;3.10;;
11111;SDS011;5609;49.466;8.468;2023-05-10T04:29:00;3.10;;;2.90;;
11111;SDS011;5609;49.466;8.468;2023-05-10T04:31:27;3.60;;;3.30;;
11111;SDS011;5609;49.466;8.468;2023-05-10T04:33:54;3.90;;;3.53;;
11111;SDS011;5609;49.466;8.468;2023-05-10T04:36:21;4.40;;;3.53;;
11111;SDS011;5609;49.466;8.468;2023-05-10T04:38:49;3.53;;;3.10;;
11111;SDS011;5609;49.466;8.468;2023-05-10T04:41:17;4.67;;;2.83;;
11111;SDS011;5609;49.466;8.468;2023-05-10T04:43:44;3.90;;;2.90;;
11111;SDS011;5609;49.466;8.468;2023-05-10T04:46:11;3.67;;;2.80;;
11111;SDS011;5609;49.466;8.468;2023-05-10T04:48:38;3.17;;;2.80;;
11111;SDS011;5609;49.466;8.468;2023-05-10T04:51:05;5.13;;;2.67;;
11111;SDS011;5609;49.466;8.468;2023-05-10T04:53:32;3.53;;;2.70;;
11111;SDS011;5609;49.466;8.468;2023-05-10T04:56:00;3.40;;;2.60;;
11111;SDS011;5609;49.466;8.468;2023-05-10T04:58:27;2.93;;;2.63;;
11111;SDS011;5609;49.466;8.468;2023-05-10T05:00:54;4.50;;;2.50;;
11111;SDS011;5609;49.466;8.468;2023-05-10T05:03:21;2.83;;;2.63;;
11111;SDS011;5609;49.466;8.468;2023-05-10T05:05:48;2.87;;;2.67;;
11111;SDS011;5609;49.466;8.468;2023-05-10T05:08:15;2.70;;;2.50;;
11111;SDS011;5609;49.466;8.468;2023-05-10T05:10:43;3.30;;;3.00;;
11111;SDS011;5609;49.466;8.468;2023-05-10T05:13:12;3.13;;;2.83;;
11111;SDS011;5609;49.466;8.468;2023-05-10T05:15:39;3.03;;;2.73;;
11111;SDS011;5609;49.466;8.468;2023-05-10T05:18:06;3.30;;;3.03;;
11111;SDS011;5609;49.466;8.468;2023-05-10T05:20:33;3.10;;;2.90;;
11111;SDS011;5609;49.466;8.468;2023-05-10T05:23:00;3.47;;;3.17;;
11111;SDS011;5609;49.466;8.468;2023-05-10T05:25:27;3.30;;;3.10;;
11111;SDS011;5609;49.466;8.468;2023-05-10T05:27:54;3.33;;;3.03;;
11111;SDS011;5609;49.466;8.468;2023-05-10T05:30:22;3.37;;;3.17;;
11111;SDS011;5609;49.466;8.468;2023-05-10T05:32:49;4.10;;;3.40;;
11111;SDS011;5609;49.466;8.468;2023-05-10T05:35:17;4.10;;;3.33;;
11111;SDS011;5609;49.466;8.468;2023-05-10T05:37:44;5.70;;;3.80;;
11111;SDS011;5609;49.466;8.468;2023-05-10T05:40:12;3.87;;;3.57;;
11111;SDS011;5609;49.466;8.468;2023-05-10T05:42:39;4.27;;;3.40;;
11111;SDS011;5609;49.466;8.468;2023-05-10T05:45:06;3.77;;;3.47;;
11111;SDS011;5609;49.466;8.468;2023-05-10T05:47:35;3.87;;;3.47;;
11111;SDS011;5609;49.466;8.468;2023-05-10T05:50:02;4.60;;;3.70;;
11111;SDS011;5609;49.466;8.468;2023-05-10T05:52:30;4.03;;;3.43;;
11111;SDS011;5609;49.466;8.468;2023-05-10T05:54:57;3.50;;;3.20;;
11111;SDS011;5609;49.466;8.468;2023-05-10T05:57:24;3.90;;;3.50;;
11111;SDS011;5609;49.466;8.468;2023-05-10T05:59:51;3.70;;;3.50;;
11111;SDS011;5609;49.466;8.468;2023-05-10T06:02:18;3.87;;;3.57;;
11111;SDS011;5609;49.466;8.468;2023-05-10T06:04:47;3.37;;;3.00;;
11111;SDS011;5609;49.466;8.468;2023-05-10T06:07:14;4.10;;;3.57;;
11111;SDS011;5609;49.466;8.468;2023-05-10T06:09:41;3.50;;;3.30;;
11111;SDS011;5609;49.466;8.468;2023-05-10T06:12:08;4.87;;;3.33;;
11111;SDS011;5609;49.466;8.468;2023-05-10T06:14:36;3.70;;;3.40;;
11111;SDS011;5609;49.466;8.468;2023-05-10T06:17:03;3.63;;;3.33;;
11111;SDS011;5609;49.466;8.468;2023-05-10T06:19:31;3.60;;;3.30;;
11111;SDS011;5609;49.466;8.468;2023-05-10T06:22:00;5.37;;;3.50;;
11111;SDS011;5609;49.466;8.468;2023-05-10T06:24:27;4.70;;;3.50;;
11111;SDS011;5609;49.466;8.468;2023-05-10T06:26:54;3.40;;;3.10;;
11111;SDS011;5609;49.466;8.468;2023-05-10T06:29:21;3.63;;;3.33;;
11111;SDS011;5609;49.466;8.468;2023-05-10T06:31:48;4.00;;;3.60;;
11111;SDS011;5609;49.466;8.468;2023-05-10T06:34:15;3.70;;;3.40;;
11111;SDS011;5609;49.466;8.468;2023-05-10T06:36:42;3.90;;;3.60;;
11111;SDS011;5609;49.466;8.468;2023-05-10T06:39:10;4.17;;;3.73;;
11111;SDS011;5609;49.466;8.468;2023-05-10T06:41:37;3.80;;;3.40;;
11111;SDS011;5609;49.466;8.468;2023-05-10T06:44:04;5.03;;;3.37;;
11111;SDS011;5609;49.466;8.468;2023-05-10T06:46:32;5.37;;;3.70;;
11111;SDS011;5609;49.466;8.468;2023-05-10T06:48:59;4.80;;;3.60;;
11111;SDS011;5609;49.466;8.468;2023-05-10T06:51:26;4.13;;;3.73;;
11111;SDS011;5609;49.466;8.468;2023-05-10T06:53:53;3.73;;;3.43;;
11111;SDS011;5609;49.466;8.468;2023-05-10T06:56:21;3.67;;;3.40;;
11111;SDS011;5609;49.466;8.468;2023-05-10T06:58:48;3.80;;;3.50;;
11111;SDS011;5609;49.466;8.468;2023-05-10T07:01:15;3.70;;;3.40;;
11111;SDS011;5609;49.466;8.468;2023-05-10T07:03:42;4.00;;;3.50;;
11111;SDS011;5609;49.466;8.468;2023-05-10T07:06:09;4.67;;;3.50;;
11111;SDS011;5609;49.466;8.468;2023-05-10T07:08:36;4.33;;;3.50;;
11111;SDS011;5609;49.466;8.468;2023-05-10T07:11:04;5.30;;;3.40;;
11111;SDS011;5609;49.466;8.468;2023-05-10T07:13:33;3.43;;;3.13;;
11111;SDS011;5609;49.466;8.468;2023-05-10T07:16:01;3.87;;;3.10;;
11111;SDS011;5609;49.466;8.468;2023-05-10T07:18:29;3.53;;;3.07;;
11111;SDS011;5609;49.466;8.468;2023-05-10T07:20:56;2.97;;;2.67;;
11111;SDS011;5609;49.466;8.468;2023-05-10T07:23:23;3.80;;;2.60;;
11111;SDS011;5609;49.466;8.468;2023-05-10T07:25:50;2.83;;;2.30;;
11111;SDS011;5609;49.466;8.468;2023-05-10T07:28:18;2.97;;;2.60;;
11111;SDS011;5609;49.466;8.468;2023-05-10T07:30:47;2.50;;;2.30;;
11111;SDS011;5609;49.466;8.468;2023-05-10T07:33:14;2.97;;;2.50;;
11111;SDS011;5609;49.466;8.468;2023-05-10T07:35:41;2.70;;;2.30;;
11111;SDS011;5609;49.466;8.468;2023-05-10T07:38:08;2.43;;;2.00;;
11111;SDS011;5609;49.466;8.468;2023-05-10T07:40:36;2.40;;;2.10;;
11111;SDS011;5609;49.466;8.468;2023-05-10T07:43:04;2.73;;;2.10;;
11111;SDS011;5609;49.466;8.468;2023-05-10T07:45:31;2.33;;;2.00;;
11111;SDS011;5609;49.466;8.468;2023-05-10T07:47:59;2.53;;;1.80;;
11111;SDS011;5609;49.466;8.468;2023-05-10T07:50:26;4.27;;;2.23;;
11111;SDS011;5609;49.466;8.468;2023-05-10T07:52:54;2.20;;;2.00;;
11111;SDS011;5609;49.466;8.468;2023-05-10T07:55:21;2.10;;;1.90;;
11111;SDS011;5609;49.466;8.468;2023-05-10T07:57:48;3.53;;;2.03;;
11111;SDS011;5609;49.466;8.468;2023-05-10T08:00:17;3.33;;;2.13;;
11111;SDS011;5609;49.466;8.468;2023-05-10T08:02:44;2.47;;;2.00;;
11111;SDS011;5609;49.466;8.468;2023-05-10T08:05:12;2.40;;;1.83;;
11111;SDS011;5609;49.466;8.468;2023-05-10T08:07:40;3.60;;;2.07;;
11111;SDS011;5609;49.466;8.468;2023-05-10T08:10:08;2.37;;;1.70;;
11111;SDS011;5609;49.466;8.468;2023-05-10T08:12:36;2.80;;;1.80;;
11111;SDS011;5609;49.466;8.468;2023-05-10T08:15:03;1.70;;;1.60;;
11111;SDS011;5609;49.466;8.468;2023-05-10T08:17:30;2.03;;;1.90;;
11111;SDS011;5609;49.466;8.468;2023-05-10T08:19:57;2.30;;;1.80;;
11111;SDS011;5609;49.466;8.468;2023-05-10T08:22:26;2.07;;;1.70;;
11111;SDS011;5609;49.466;8.468;2023-05-10T08:24:53;3.07;;;1.70;;
11111;SDS011;5609;49.466;8.468;2023-05-10T08:27:20;2.67;;;1.40;;
11111;SDS011;5609;49.466;8.468;2023-05-10T08:29:47;1.53;;;1.43;;
11111;SDS011;5609;49.466;8.468;2023-05-10T08:32:14;1.97;;;1.40;;
11111;SDS011;5609;49.466;8.468;2023-05-10T08:34:41;3.53;;;1.47;;
11111;SDS011;5609;49.466;8.468;2023-05-10T08:37:08;3.30;;;1.30;;
11111;SDS011;5609;49.466;8.468;2023-05-10T08:39:39;1.70;;;1.07;;
11111;SDS011;5609;49.466;8.468;2023-05-10T08:42:06;1.03;;;1.00;;
11111;SDS011;5609;49.466;8.468;2023-05-10T08:44:34;2.43;;;1.03;;
11111;SDS011;5609;49.466;8.468;2023-05-10T08:47:02;0.93;;;0.83;;
11111;SDS011;5609;49.466;8.468;2023-05-10T08:49:31;1.37;;;1.10;;
11111;SDS011;5609;49.466;8.468;2023-05-10T08:51:59;1.40;;;1.07;;
11111;SDS011;5609;49.466;8.468;2023-05-10T08:54:29;2.67;;;1.10;;
11111;SDS011;5609;49.466;8.468;2023-05-10T08:56:58;1.17;;;1.07;;
11111;SDS011;5609;49.466;8.468;2023-05-10T08:59:25;1.10;;;1.00;;
11111;SDS011;5609;49.466;8.468;2023-05-10T09:01:52;1.77;;;1.20;;
11111;SDS011;5609;49.466;8.468;2023-05-10T09:04:20;1.80;;;1.27;;
11111;SDS011;5609;49.466;8.468;2023-05-10T09:06:47;1.33;;;1.23;;
11111;SDS011;5609;49.466;8.468;2023-05-10T09:09:14;1.47;;;1.33;;
11111;SDS011;5609;49.466;8.468;2023-05-10T09:11:42;2.93;;;1.70;;
11111;SDS011;5609;49.466;8.468;2023-05-10T09:14:10;1.50;;;1.40;;
11111;SDS011;5609;49.466;8.468;2023-05-10T09:16:39;1.50;;;1.40;;
11111;SDS011;5609;49.466;8.468;2023-05-10T09:19:06;2.03;;;1.30;;
11111;SDS011;5609;49.466;8.468;2023-05-10T09:21:34;1.10;;;1.10;;
11111;SDS011;5609;49.466;8.468;2023-05-10T09:24:03;1.93;;;1.43;;
11111;SDS011;5609;49.466;8.468;2023-05-10T09:26:30;4.80;;;1.63;;
11111;SDS011;5609;49.466;8.468;2023-05-10T09:28:58;2.53;;;1.50;;
11111;SDS011;5609;49.466;8.468;2023-05-10T09:31:42;2.30;;;1.40;;
11111;SDS011;5609;49.466;8.468;2023-05-10T09:34:11;2.80;;;1.20;;
11111;SDS011;5609;49.466;8.468;2023-05-10T09:36:49;2.33;;;1.20;;
11111;SDS011;5609;49.466;8.468;2023-05-10T09:39:16;1.30;;;1.20;;
11111;SDS011;5609;49.466;8.468;2023-05-10T09:41:43;1.33;;;1.23;;
11111;SDS011;5609;49.466;8.468;2023-05-10T09:44:10;3.40;;;1.33;;
11111;SDS011;5609;49.466;8.468;2023-05-10T09:46:39;2.83;;;1.30;;
11111;SDS011;5609;49.466;8.468;2023-05-10T09:49:06;2.37;;;1.30;;
11111;SDS011;5609;49.466;8.468;2023-05-10T09:51:34;1.20;;;1.10;;
11111;SDS011;5609;49.466;8.468;2023-05-10T09:54:08;1.17;;;0.97;;
11111;SDS011;5609;49.466;8.468;2023-05-10T09:56:36;2.03;;;1.10;;
11111;SDS011;5609;49.466;8.468;2023-05-10T09:59:04;3.67;;;1.40;;
11111;SDS011;5609;49.466;8.468;2023-05-10T10:01:32;1.40;;;1.10;;
11111;SDS011;5609;49.466;8.468;2023-05-10T10:04:02;2.10;;;1.10;;
11111;SDS011;5609;49.466;8.468;2023-05-10T10:06:30;1.63;;;1.00;;
11111;SDS011;5609;49.466;8.468;2023-05-10T10:09:01;1.30;;;1.10;;
11111;SDS011;5609;49.466;8.468;2023-05-10T10:11:28;2.27;;;1.30;;
11111;SDS011;5609;49.466;8.468;2023-05-10T10:13:56;1.90;;;0.90;;
11111;SDS011;5609;49.466;8.468;2023-05-10T10:16:23;1.83;;;1.00;;
11111;SDS011;5609;49.466;8.468;2023-05-10T10:18:50;2.17;;;1.00;;
11111;SDS011;5609;49.466;8.468;2023-05-10T10:21:18;1.27;;;1.13;;
11111;SDS011;5609;49.466;8.468;2023-05-10T10:23:46;1.17;;;1.10;;
11111;SDS011;5609;49.466;8.468;2023-05-10T10:26:13;2.93;;;1.40;;
11111;SDS011;5609;49.466;8.468;2023-05-10T10:28:44;2.57;;;1.40;;
11111;SDS011;5609;49.466;8.468;2023-05-10T10:31:15;2.10;;;1.50;;
11111;SDS011;5609;49.466;8.468;2023-05-10T10:33:51;2.23;;;1.40;;
11111;SDS011;5609;49.466;8.468;2023-05-10T10:36:22;2.80;;;1.70;;
11111;SDS011;5609;49.466;8.468;2023-05-10T10:38:55;1.73;;;1.40;;
11111;SDS011;5609;49.466;8.468;2023-05-10T10:41:28;2.73;;;1.37;;
11111;SDS011;5609;49.466;8.468;2023-05-10T10:49:24;2.87;;;1.50;;
11111;SDS011;5609;49.466;8.468;2023-05-10T10:54:38;2.10;;;1.50;;
11111;SDS011;5609;49.466;8.468;2023-05-10T10:57:10;1.47;;;1.37;;
11111;SDS011;5609;49.466;8.468;2023-05-10T10:59:41;1.77;;;1.10;;
11111;SDS011;5609;49.466;8.468;2023-05-10T11:02:08;1.97;;;0.97;;
11111;SDS011;5609;49.466;8.468;2023-05-10T11:04:41;1.87;;;0.87;;
11111;SDS011;5609;49.466;8.468;2023-05-10T11:07:17;1.90;;;0.80;;
11111;SDS011;5609;49.466;8.468;2023-05-10T11:09:47;3.13;;;1.03;;
11111;SDS011;5609;49.466;8.468;2023-05-10T11:12:15;2.27;;;0.80;;
11111;SDS011;5609;49.466;8.468;2023-05-10T11:14:42;1.33;;;0.80;;
11111;SDS011;5609;49.466;8.468;2023-05-10T11:17:22;2.03;;;0.80;;
11111;SDS011;5609;49.466;8.468;2023-05-10T11:20:08;2.67;;;0.70;;
11111;SDS011;5609;49.466;8.468;2023-05-10T11:22:48;1.57;;;0.87;;
11111;SDS011;5609;49.466;8.468;2023-05-10T11:25:18;1.40;;;0.87;;
11111;SDS011;5609;49.466;8.468;2023-05-10T11:27:46;0.70;;;0.70;;
11111;SDS011;5609;49.466;8.468;2023-05-10T11:30:14;1.60;;;1.00;;
11111;SDS011;5609;49.466;8.468;2023-05-10T11:32:41;1.93;;;1.00;;
11111;SDS011;5609;49.466;8.468;2023-05-10T11:35:09;2.23;;;0.93;;
11111;SDS011;5609;49.466;8.468;2023-05-10T11:37:36;3.87;;;1.10;;
11111;SDS011;5609;49.466;8.468;2023-05-10T11:40:06;1.67;;;0.90;;
11111;SDS011;5609;49.466;8.468;2023-05-10T11:42:37;1.90;;;1.00;;
11111;SDS011;5609;49.466;8.468;2023-05-10T11:45:04;3.77;;;1.20;;
11111;SDS011;5609;49.466;8.468;2023-05-10T11:47:31;1.43;;;1.00;;
11111;SDS011;5609;49.466;8.468;2023-05-10T11:50:00;1.30;;;0.97;;
11111;SDS011;5609;49.466;8.468;2023-05-10T11:52:27;2.10;;;1.00;;
11111;SDS011;5609;49.466;8.468;2023-05-10T11:54:55;1.97;;;1.00;;
11111;SDS011;5609;49.466;8.468;2023-05-10T11:57:25;0.83;;;0.70;;
11111;SDS011;5609;49.466;8.468;2023-05-10T11:59:54;1.30;;;0.73;;
11111;SDS011;5609;49.466;8.468;2023-05-10T12:02:21;2.57;;;0.90;;
11111;SDS011;5609;49.466;8.468;2023-05-10T12:04:48;3.10;;;0.90;;
11111;SDS011;5609;49.466;8.468;2023-05-10T12:07:15;1.57;;;1.10;;
11111;SDS011;5609;49.466;8.468;2023-05-10T12:09:43;1.77;;;1.10;;
11111;SDS011;5609;49.466;8.468;2023-05-10T12:12:10;1.90;;;1.00;;
11111;SDS011;5609;49.466;8.468;2023-05-10T12:14:37;2.33;;;1.03;;
11111;SDS011;5609;49.466;8.468;2023-05-10T12:17:06;1.57;;;0.70;;
11111;SDS011;5609;49.466;8.468;2023-05-10T12:19:38;1.73;;;1.00;;
11111;SDS011;5609;49.466;8.468;2023-05-10T12:22:06;1.87;;;0.87;;
11111;SDS011;5609;49.466;8.468;2023-05-10T12:24:33;2.97;;;0.73;;
11111;SDS011;5609;49.466;8.468;2023-05-10T12:27:04;2.27;;;1.20;;
11111;SDS011;5609;49.466;8.468;2023-05-10T12:29:33;2.70;;;1.00;;
11111;SDS011;5609;49.466;8.468;2023-05-10T12:32:00;1.63;;;1.00;;
11111;SDS011;5609;49.466;8.468;2023-05-10T12:34:31;2.80;;;1.10;;
11111;SDS011;5609;49.466;8.468;2023-05-10T12:36:59;2.57;;;1.10;;
11111;SDS011;5609;49.466;8.468;2023-05-10T12:39:26;2.77;;;1.30;;
11111;SDS011;5609;49.466;8.468;2023-05-10T12:41:53;2.80;;;1.20;;
11111;SDS011;5609;49.466;8.468;2023-05-10T12:44:20;4.10;;;1.10;;
11111;SDS011;5609;49.466;8.468;2023-05-10T12:46:47;1.87;;;1.10;;
11111;SDS011;5609;49.466;8.468;2023-05-10T12:49:14;3.33;;;1.10;;
11111;SDS011;5609;49.466;8.468;2023-05-10T12:51:43;2.23;;;0.97;;
11111;SDS011;5609;49.466;8.468;2023-05-10T12:54:10;2.77;;;1.20;;
11111;SDS011;5609;49.466;8.468;2023-05-10T12:56:37;2.20;;;0.93;;
11111;SDS011;5609;49.466;8.468;2023-05-10T12:59:05;2.40;;;1.00;;
11111;SDS011;5609;49.466;8.468;2023-05-10T13:01:32;1.60;;;0.90;;
11111;SDS011;5609;49.466;8.468;2023-05-10T13:03:59;1.83;;;1.00;;
11111;SDS011;5609;49.466;8.468;2023-05-10T13:06:27;2.13;;;1.10;;
11111;SDS011;5609;49.466;8.468;2023-05-10T13:08:55;3.93;;;1.00;;
11111;SDS011;5609;49.466;8.468;2023-05-10T13:11:22;2.50;;;0.90;;
11111;SDS011;5609;49.466;8.468;2023-05-10T13:13:49;2.33;;;1.07;;
11111;SDS011;5609;49.466;8.468;2023-05-10T13:16:16;2.80;;;1.07;;
11111;SDS011;5609;49.466;8.468;2023-05-10T13:18:43;3.10;;;1.10;;
11111;SDS011;5609;49.466;8.468;2023-05-10T13:21:10;2.67;;;0.90;;
11111;SDS011;5609;49.466;8.468;2023-05-10T13:23:38;2.70;;;0.83;;
11111;SDS011;5609;49.466;8.468;2023-05-10T13:26:06;3.70;;;1.10;;
11111;SDS011;5609;49.466;8.468;2023-05-10T13:28:33;2.97;;;0.83;;
11111;SDS011;5609;49.466;8.468;2023-05-10T13:31:00;5.07;;;1.20;;
11111;SDS011;5609;49.466;8.468;2023-05-10T13:33:27;4.07;;;0.90;;
11111;SDS011;5609;49.466;8.468;2023-05-10T13:35:54;2.10;;;0.80;;
11111;SDS011;5609;49.466;8.468;2023-05-10T13:38:21;1.40;;;0.87;;
11111;SDS011;5609;49.466;8.468;2023-05-10T13:40:48;2.50;;;0.70;;
11111;SDS011;5609;49.466;8.468;2023-05-10T13:43:18;2.00;;;0.80;;
11111;SDS011;5609;49.466;8.468;2023-05-10T13:45:46;2.13;;;0.67;;
11111;SDS011;5609;49.466;8.468;2023-05-10T13:48:13;1.67;;;0.80;;
11111;SDS011;5609;49.466;8.468;2023-05-10T13:50:40;2.83;;;0.90;;
11111;SDS011;5609;49.466;8.468;2023-05-10T13:53:07;2.33;;;0.80;;
11111;SDS011;5609;49.466;8.468;2023-05-10T13:55:34;2.60;;;0.80;;
11111;SDS011;5609;49.466;8.468;2023-05-10T13:58:01;2.50;;;0.90;;
11111;SDS011;5609;49.466;8.468;2023-05-10T14:00:30;2.37;;;0.90;;
11111;SDS011;5609;49.466;8.468;2023-05-10T14:02:57;1.17;;;0.50;;
11111;SDS011;5609;49.466;8.468;2023-05-10T14:05:24;3.73;;;0.70;;
11111;SDS011;5609;49.466;8.468;2023-05-10T14:07:51;2.20;;;0.70;;
11111;SDS011;5609;49.466;8.468;2023-05-10T14:10:18;1.17;;;0.73;;
11111;SDS011;5609;49.466;8.468;2023-05-10T14:12:45;2.03;;;0.90;;
11111;SDS011;5609;49.466;8.468;2023-05-10T14:15:13;3.17;;;0.90;;
11111;SDS011;5609;49.466;8.468;2023-05-10T14:17:41;0.93;;;0.70;;
11111;SDS011;5609;49.466;8.468;2023-05-10T14:20:09;1.30;;;0.60;;
11111;SDS011;5609;49.466;8.468;2023-05-10T14:22:36;2.23;;;0.70;;
11111;SDS011;5609;49.466;8.468;2023-05-10T14:25:03;3.03;;;0.73;;
11111;SDS011;5609;49.466;8.468;2023-05-10T14:27:31;2.37;;;0.50;;
11111;SDS011;5609;49.466;8.468;2023-05-10T14:29:58;2.47;;;0.70;;
11111;SDS011;5609;49.466;8.468;2023-05-10T14:32:25;1.70;;;0.57;;
11111;SDS011;5609;49.466;8.468;2023-05-10T14:34:54;3.13;;;0.77;;
11111;SDS011;5609;49.466;8.468;2023-05-10T14:37:21;1.20;;;0.60;;
11111;SDS011;5609;49.466;8.468;2023-05-10T14:39:48;1.70;;;0.60;;
11111;SDS011;5609;49.466;8.468;2023-05-10T14:42:15;1.60;;;0.50;;
11111;SDS011;5609;49.466;8.468;2023-05-10T14:44:42;2.63;;;0.90;;
11111;SDS011;5609;49.466;8.468;2023-05-10T14:47:09;3.03;;;0.50;;
11111;SDS011;5609;49.466;8.468;2023-05-10T14:49:36;1.93;;;0.50;;
11111;SDS011;5609;49.466;8.468;2023-05-10T14:52:05;1.40;;;0.60;;
11111;SDS011;5609;49.466;8.468;2023-05-10T14:54:32;1.37;;;0.60;;
11111;SDS011;5609;49.466;8.468;2023-05-10T14:56:59;1.80;;;0.50;;
11111;SDS011;5609;49.466;8.468;2023-05-10T14:59:26;1.03;;;0.60;;
11111;SDS011;5609;49.466;8.468;2023-05-10T15:01:53;2.43;;;0.53;;
11111;SDS011;5609;49.466;8.468;2023-05-10T15:04:20;1.07;;;0.50;;
11111;SDS011;5609;49.466;8.468;2023-05-10T15:06:47;1.60;;;0.57;;
11111;SDS011;5609;49.466;8.468;2023-05-10T15:09:16;1.43;;;0.40;;
11111;SDS011;5609;49.466;8.468;2023-05-10T15:11:43;1.20;;;0.57;;
11111;SDS011;5609;49.466;8.468;2023-05-10T15:14:10;1.13;;;0.67;;
11111;SDS011;5609;49.466;8.468;2023-05-10T15:16:37;1.00;;;0.57;;